Airfield :
LOGIN :

Register | Disclaimer

   EN    FR    IT 

 










Legend :    VFR   Marginal VFR   IFR   Intensive IFR   Very Intensive IFR
Visi :
Ceiling :
>= 8 km
>= 3000ft
5 to 8 km
1000 to 3000 ft
1500m to 5 km
500 to 1000 ft
800 to 1500m
200 to 500 ft
< 800m
< 200 ft
Symbols :   Thunderstorms  Fog  Heavy snow  Heavy precipitations  Wind > 20 kt
SIGMETs :     Misc.  Thunderstorms  Icing  Turbulence  Mountain Waves  Volcanic Ashes






- Airport Elevation : 69 ft
- IATA code : AES


ENAL - Ålesund

CURRENT METAR :
  • 230450Z 28005KT 250V320 9999 VCSH SCT033TCU 07/01 Q1014

EXPIRED METARs :
  • 230420Z 34005KT 300V020 9999 VCSH SCT033TCU 06/01 Q1014
  • 230350Z AUTO 29003KT 240V330 9999 -RA SCT033/// 06/02 Q1013
  • 230320Z AUTO 31003KT 280V350 9999 FEW059/// 06/M00 Q1013
  • 230250Z AUTO 31013KT 290V350 9999 FEW033/// 06/01 Q1013
  • 230220Z AUTO 32008KT 9999 FEW031/// SCT046/// BKN061/// 07/01 Q1013

TAF TAF ENAL
Valid from the 23 at 03:00 until the 23 at 12:00 UTC


230200Z 2303/2312 33010KT 9999 -SHRA FEW020TCU SCT040
BECMG 2306/2308 27008KT
BECMG 2309/2311 20010KT



MET'MAP, your aeronautical weather chart ! - Copyright ORBIFLY December 2007 - Disclaimer

ORBIFLY MET'MAP TEAM :

Programming & Development : Alexandra Zaïnal
Concept & original design : Baudouin d'Aumeries
Assistance for programming : Marc-Olivier Méhu
Technical & hardware support : Manuel Goepfert

Contact : metmap@orbifly.com




SOURCES & CREDITS :

   NOAA